.
WxDataArchive / Data Records for 2008-03-11
2008-03-10 March 2008 2008-03-12

Data Records for Tuesday, 11 March 2008

Time	Temp	Chill	HIndex	Humid	Dewpt	 Wind 	HiWind	WindDir	Rain 	Barom 
-----	----	-----	------	-----	-----	------	------	-------	-----	----- 
00:00	29.3	29.3	29.3	70	20.8	0	1	248	0.00	30.268 
00:05	29.3	29.3	29.3	71	21.1	0	1	248	0.00	30.272 
00:10	29.1	29.1	29.1	71	20.9	0	2	248	0.00	30.270 
00:15	29.1	29.1	29.1	71	20.9	0	2	248	0.00	30.267 
00:20	29.0	29.0	29.0	70	20.5	0	2	248	0.00	30.269 
00:25	29.0	29.0	29.0	70	20.5	1	2	248	0.00	30.267 
00:30	28.8	28.8	28.8	70	20.3	0	2	248	0.00	30.267 
00:35	28.7	28.7	28.7	70	20.2	0	2	270	0.00	30.267 
00:40	28.7	28.7	28.7	70	20.2	1	3	270	0.00	30.265 
00:45	28.4	28.4	28.4	69	19.5	1	3	248	0.00	30.265 
00:50	28.2	28.2	28.2	70	19.7	1	2	338	0.00	30.264 
00:55	28.1	28.1	28.1	70	19.6	0	2	292	0.00	30.264 
01:00	27.9	27.9	27.9	70	19.4	0	2	248	0.00	30.264 
01:05	27.8	27.8	27.8	71	19.6	0	3	248	0.00	30.263 
01:10	27.6	27.6	27.6	71	19.4	0	1	248	0.00	30.263 
01:15	27.5	27.5	27.5	71	19.4	0	2	248	0.00	30.263 
01:20	27.2	27.2	27.2	72	19.4	0	1	248	0.00	30.265 
01:25	27.0	27.0	27.0	72	19.2	0	1	248	0.00	30.264 
01:30	26.9	26.9	26.9	72	19.1	0	1	248	0.00	30.265 
01:35	26.7	26.7	26.7	72	18.9	0	1	248	0.00	30.265 
01:40	26.6	26.6	26.6	73	19.1	0	1	248	0.00	30.265 
01:45	26.4	26.4	26.4	73	18.9	0	1	248	0.00	30.265 
01:50	26.3	26.3	26.3	73	18.8	0	1	248	0.00	30.266 
01:55	26.1	26.1	26.1	73	18.7	0	1	248	0.00	30.267 
02:00	26.1	26.1	26.1	74	19.0	0	0	---	0.00	30.265 
02:05	26.0	26.0	26.0	74	18.9	0	0	---	0.00	30.266 
02:10	25.8	25.8	25.8	74	18.7	0	0	---	0.00	30.265 
02:15	25.7	25.7	25.7	75	18.9	0	1	248	0.00	30.264 
02:20	25.7	25.7	25.7	75	18.9	0	1	248	0.00	30.263 
02:25	25.6	25.6	25.6	75	18.8	0	1	248	0.00	30.261 
02:30	25.4	25.4	25.4	76	18.9	0	1	248	0.00	30.262 
02:35	25.4	25.4	25.4	76	18.9	0	1	248	0.00	30.262 
02:40	25.3	25.3	25.3	76	18.8	0	0	---	0.00	30.257 
02:45	25.1	25.1	25.1	76	18.6	0	1	248	0.00	30.252 
02:50	25.1	25.1	25.1	77	18.9	0	0	---	0.00	30.250 
02:55	25.0	25.0	25.0	77	18.8	0	0	---	0.00	30.241 
03:00	25.0	25.0	25.0	77	18.8	0	1	248	0.00	30.236 
03:05	24.8	24.8	24.8	77	18.6	0	1	248	0.00	30.237 
03:10	24.8	24.8	24.8	77	18.6	0	1	248	0.00	30.237 
03:15	24.8	24.8	24.8	77	18.6	0	1	248	0.00	30.234 
03:20	24.7	24.7	24.7	77	18.5	0	0	---	0.00	30.227 
03:25	24.5	24.5	24.5	78	18.6	0	1	248	0.00	30.223 
03:30	24.4	24.4	24.4	78	18.5	0	1	248	0.00	30.220 
03:35	24.2	24.2	24.2	78	18.3	0	1	248	0.00	30.219 
03:40	24.2	24.2	24.2	79	18.6	0	0	---	0.00	30.218 
03:45	24.1	24.1	24.1	79	18.5	0	1	248	0.00	30.219 
03:50	24.1	24.1	24.1	79	18.5	0	1	248	0.00	30.220 
03:55	23.9	23.9	23.9	80	18.6	0	1	248	0.00	30.215 
04:00	23.8	23.8	23.8	80	18.5	0	0	---	0.00	30.209 
04:05	23.8	23.8	23.8	80	18.5	0	0	---	0.00	30.213 
04:10	23.6	23.6	23.6	81	18.6	0	1	248	0.00	30.213 
04:15	23.5	23.5	23.5	81	18.5	0	0	---	0.00	30.212 
04:20	23.3	23.3	23.3	81	18.3	0	0	---	0.00	30.208 
04:25	23.2	23.2	23.2	81	18.3	0	0	---	0.00	30.206 
04:30	23.0	23.0	23.0	82	18.3	0	0	---	0.00	30.206 
04:35	22.9	22.9	22.9	82	18.2	0	0	---	0.00	30.205 
04:40	22.7	22.7	22.7	83	18.3	0	0	---	0.00	30.197 
04:45	22.5	22.5	22.5	83	18.1	0	0	---	0.00	30.194 
04:50	22.2	22.2	22.2	83	17.8	0	0	---	0.00	30.199 
04:55	22.1	22.1	22.1	83	17.7	0	0	---	0.00	30.194 
05:00	21.9	21.9	21.9	84	17.8	0	0	---	0.00	30.192 
05:05	21.6	21.6	21.6	84	17.5	0	0	---	0.00	30.191 
05:10	21.4	21.4	21.4	84	17.3	0	0	---	0.00	30.188 
05:15	21.3	21.3	21.3	84	17.2	0	0	---	0.00	30.183 
05:20	21.0	21.0	21.0	84	16.9	0	0	---	0.00	30.181 
05:25	20.8	20.8	20.8	85	17.0	0	0	---	0.00	30.179 
05:30	20.5	20.5	20.5	85	16.7	0	0	---	0.00	30.178 
05:35	20.3	20.3	20.3	85	16.5	0	0	---	0.00	30.178 
05:40	20.2	20.2	20.2	86	16.7	0	0	---	0.00	30.178 
05:45	20.0	20.0	20.0	86	16.5	0	0	---	0.00	30.179 
05:50	19.9	19.9	19.9	86	16.4	0	0	---	0.00	30.179 
05:55	19.9	19.9	19.9	86	16.4	0	0	---	0.00	30.177 
06:00	19.7	19.7	19.7	87	16.5	0	0	---	0.00	30.179 
06:05	19.7	19.7	19.7	87	16.5	0	0	---	0.00	30.182 
06:10	19.5	19.5	19.5	88	16.5	0	0	---	0.00	30.184 
06:15	19.5	19.5	19.5	88	16.5	0	0	---	0.00	30.187 
06:20	19.7	19.7	19.7	88	16.7	0	1	248	0.00	30.189 
06:25	19.9	19.9	19.9	88	16.9	0	1	248	0.00	30.191 
06:30	20.2	20.2	20.2	89	17.5	0	1	248	0.00	30.186 
06:35	20.5	20.5	20.5	89	17.8	0	0	---	0.00	30.184 
06:40	20.8	20.8	20.8	90	18.3	0	1	248	0.00	30.182 
06:45	21.0	21.0	21.0	90	18.5	0	1	248	0.00	30.181 
06:50	21.3	21.3	21.3	90	18.8	0	1	248	0.00	30.181 
06:55	21.4	21.4	21.4	90	18.9	0	0	---	0.00	30.181 
07:00	21.4	21.4	21.4	90	18.9	0	0	---	0.00	30.183 
07:05	21.3	21.3	21.3	90	18.8	0	0	---	0.00	30.186 
07:10	21.3	21.3	21.3	90	18.8	0	1	248	0.00	30.190 
07:15	21.4	21.4	21.4	90	18.9	0	1	248	0.00	30.193 
07:20	21.8	21.8	21.8	90	19.3	0	1	248	0.00	30.194 
07:25	22.2	22.2	22.2	90	19.7	0	1	248	0.00	30.194 
07:30	22.5	22.5	22.5	90	20.0	0	2	248	0.00	30.193 
07:35	23.0	23.0	23.0	90	20.5	1	3	248	0.00	30.193 
07:40	23.3	23.3	23.3	90	20.8	0	3	248	0.00	30.192 
07:45	23.6	23.6	23.6	89	20.8	1	2	248	0.00	30.186 
07:50	24.1	24.1	24.1	88	21.1	1	2	248	0.00	30.187 
07:55	24.4	24.4	24.4	88	21.4	1	2	248	0.00	30.188 
08:00	24.8	24.8	24.8	87	21.5	1	3	248	0.00	30.182 
08:05	25.1	25.1	25.1	86	21.5	1	3	248	0.00	30.180 
08:10	25.6	25.6	25.6	85	21.7	1	3	248	0.00	30.179 
08:15	26.0	26.0	26.0	84	21.8	0	1	248	0.00	30.176 
08:20	26.3	26.3	26.3	83	21.9	1	3	248	0.00	30.175 
08:25	26.6	26.6	26.6	82	21.9	1	3	248	0.00	30.175 
08:30	27.0	27.0	27.0	81	22.0	1	3	248	0.00	30.174 
08:35	27.3	27.3	27.3	80	22.0	1	4	248	0.00	30.171 
08:40	27.6	27.6	27.6	79	22.0	1	3	248	0.00	30.162 
08:45	28.1	28.1	28.1	77	21.8	1	4	248	0.00	30.160 
08:50	28.4	28.4	28.4	76	21.8	1	4	248	0.00	30.160 
08:55	28.5	28.5	28.5	75	21.6	2	5	225	0.00	30.158 
09:00	29.0	29.0	29.0	74	21.8	2	5	248	0.00	30.156 
09:05	29.3	29.3	29.3	73	21.7	2	6	248	0.00	30.153 
09:10	29.5	29.5	29.5	73	21.9	1	3	248	0.00	30.150 
09:15	29.8	29.8	29.8	71	21.6	2	7	248	0.00	30.146 
09:20	30.1	30.1	30.1	70	21.5	2	5	248	0.00	30.144 
09:25	30.4	30.4	30.4	69	21.5	3	7	248	0.00	30.144 
09:30	30.6	30.6	30.6	68	21.3	3	9	248	0.00	30.142 
09:35	30.7	30.7	30.7	68	21.4	3	10	270	0.00	30.141 
09:40	30.7	26.6	30.7	68	21.4	4	10	248	0.00	30.139 
09:45	31.3	31.3	31.3	68	22.0	2	6	225	0.00	30.139 
09:50	31.9	31.9	31.9	67	22.2	2	6	248	0.00	30.137 
09:55	31.8	27.8	31.8	65	21.4	4	9	248	0.00	30.137 
10:00	31.9	31.9	31.9	66	21.9	3	10	248	0.00	30.137 
10:05	31.9	27.0	31.9	65	21.5	5	11	248	0.00	30.136 
10:10	31.9	28.0	31.9	65	21.5	4	10	248	0.00	30.135 
10:15	32.4	32.4	32.4	67	22.7	2	7	248	0.00	30.132 
10:20	32.7	28.9	32.7	64	21.9	4	10	248	0.00	30.131 
10:25	32.9	32.9	32.9	64	22.1	3	7	248	0.00	30.132 
10:30	33.4	29.7	33.4	63	22.2	4	10	248	0.00	30.135 
10:35	33.4	29.7	33.4	62	21.8	4	9	248	0.00	30.134 
10:40	33.5	29.8	33.5	63	22.3	4	12	270	0.00	30.131 
10:45	34.0	30.4	34.0	62	22.4	4	12	248	0.00	30.126 
10:50	33.7	29.1	33.7	62	22.1	5	11	248	0.00	30.123 
10:55	33.5	29.8	33.5	63	22.3	4	12	248	0.00	30.122 
11:00	33.8	33.8	33.8	63	22.6	3	9	248	0.00	30.117 
11:05	34.0	30.4	34.0	63	22.7	4	12	270	0.00	30.115 
11:10	33.8	30.2	33.8	63	22.6	4	14	248	0.00	30.112 
11:15	33.8	33.8	33.8	64	22.9	3	7	270	0.00	30.112 
11:20	33.8	33.8	33.8	63	22.6	3	7	248	0.00	30.112 
11:25	34.3	30.7	34.3	64	23.4	4	9	248	0.00	30.111 
11:30	34.6	34.6	34.6	63	23.3	3	9	248	0.00	30.107 
11:35	34.7	34.7	34.7	62	23.0	3	11	248	0.00	30.105 
11:40	35.0	35.0	35.0	62	23.3	3	9	248	0.00	30.101 
11:45	34.7	30.2	34.7	62	23.0	5	16	248	0.00	30.097 
11:50	34.7	31.2	34.7	62	23.0	4	11	270	0.00	30.094 
11:55	34.9	31.4	34.9	62	23.2	4	9	248	0.00	30.091 
12:00	34.9	31.4	34.9	62	23.2	4	10	270	0.00	30.093 
12:05	34.1	30.5	34.1	64	23.2	4	12	248	0.00	30.092 
12:10	34.6	34.6	34.6	64	23.7	3	9	248	0.00	30.081 
12:15	35.0	31.5	35.0	62	23.3	4	11	248	0.00	30.078 
12:20	35.0	31.5	35.0	61	22.9	4	10	248	0.00	30.076 
12:25	35.3	31.9	35.3	61	23.2	4	10	248	0.00	30.067 
12:30	35.3	31.9	35.3	61	23.2	4	10	248	0.00	30.065 
12:35	35.6	32.2	35.6	60	23.1	4	10	248	0.00	30.060 
12:40	35.6	32.2	35.6	61	23.5	4	10	248	0.00	30.058 
12:45	35.8	35.8	35.8	61	23.7	2	6	248	0.00	30.053 
12:50	36.3	36.3	36.3	60	23.8	3	10	248	0.00	30.048 
12:55	36.2	32.9	36.2	59	23.3	4	9	270	0.00	30.046 
13:00	36.0	32.7	36.0	60	23.5	4	10	248	0.00	30.043 
13:05	36.3	36.3	36.3	60	23.8	3	9	248	0.00	30.038 
13:10	36.3	36.3	36.3	60	23.8	3	9	248	0.00	30.035 
13:15	36.3	32.1	36.3	59	23.4	5	10	270	0.00	30.031 
13:20	36.5	33.3	36.5	59	23.6	4	12	248	0.00	30.031 
13:25	36.8	36.8	36.8	59	23.8	3	9	248	0.00	30.026 
13:30	37.0	37.0	37.0	58	23.6	3	9	248	0.00	30.018 
13:35	37.5	37.5	37.5	59	24.5	3	7	270	0.00	30.015 
13:40	37.6	34.5	37.6	57	23.8	4	10	248	0.00	30.012 
13:45	37.9	37.9	37.9	58	24.5	3	6	270	0.00	30.001 
13:50	37.9	37.9	37.9	57	24.0	3	7	248	0.00	29.998 
13:55	37.9	34.0	37.9	56	23.6	5	11	248	0.00	29.997 
14:00	38.0	38.0	38.0	56	23.7	3	6	248	0.00	29.993 
14:05	38.0	35.0	38.0	57	24.1	4	11	270	0.00	29.990 
14:10	38.2	38.2	38.2	56	23.9	3	10	248	0.00	29.985 
14:15	38.2	35.2	38.2	56	23.9	4	10	270	0.00	29.983 
14:20	38.0	35.0	38.0	55	23.3	4	11	270	0.00	29.981 
14:25	38.2	38.2	38.2	57	24.3	3	6	248	0.00	29.977 
14:30	38.3	38.3	38.3	58	24.8	3	9	248	0.00	29.973 
14:35	38.2	35.2	38.2	56	23.9	4	11	248	0.00	29.970 
14:40	38.3	38.3	38.3	57	24.4	3	6	248	0.00	29.968 
14:45	38.5	38.5	38.5	58	25.0	3	7	248	0.00	29.964 
14:50	38.6	35.7	38.6	56	24.3	4	10	248	0.00	29.958 
14:55	38.3	34.5	38.3	57	24.4	5	12	270	0.00	29.956 
15:00	38.2	38.2	38.2	59	25.2	3	9	248	0.00	29.953 
15:05	38.3	38.3	38.3	60	25.6	3	9	248	0.00	29.951 
15:10	38.6	38.6	38.6	58	25.1	2	6	270	0.00	29.947 
15:15	38.5	35.6	38.5	58	25.0	4	10	270	0.00	29.941 
15:20	38.3	38.3	38.3	58	24.8	3	12	248	0.00	29.938 
15:25	38.6	38.6	38.6	57	24.7	3	10	248	0.00	29.935 
15:30	38.6	38.6	38.6	57	24.7	3	7	248	0.00	29.930 
15:35	38.5	38.5	38.5	58	25.0	3	9	248	0.00	29.922 
15:40	38.5	38.5	38.5	58	25.0	2	6	225	0.00	29.919 
15:45	38.5	38.5	38.5	58	25.0	3	9	248	0.00	29.916 
15:50	38.3	35.4	38.3	57	24.4	4	9	248	0.00	29.912 
15:55	38.5	38.5	38.5	57	24.6	3	6	248	0.00	29.909 
16:00	38.8	38.8	38.8	56	24.5	3	6	270	0.00	29.905 
16:05	38.9	38.9	38.9	58	25.4	2	5	248	0.00	29.905 
16:10	38.8	35.9	38.8	57	24.9	4	9	248	0.00	29.901 
16:15	38.3	35.4	38.3	56	24.0	4	14	248	0.00	29.893 
16:20	38.2	38.2	38.2	57	24.3	3	6	248	0.00	29.890 
16:25	38.2	35.2	38.2	56	23.9	4	11	248	0.00	29.888 
16:30	38.0	35.0	38.0	57	24.1	4	8	248	0.00	29.882 
16:35	38.2	35.2	38.2	56	23.9	4	9	248	0.00	29.876 
16:40	37.9	34.9	37.9	58	24.5	4	11	270	0.00	29.874 
16:45	37.8	33.9	37.8	58	24.4	5	11	248	0.00	29.866 
16:50	37.9	37.9	37.9	59	24.9	3	10	248	0.00	29.862 
16:55	38.2	38.2	38.2	61	26.0	3	10	248	0.00	29.860 
17:00	38.0	38.0	38.0	62	26.2	3	9	270	0.00	29.859 
17:05	38.2	38.2	38.2	62	26.3	3	9	248	0.00	29.859 
17:10	38.3	38.3	38.3	63	26.8	3	6	248	0.00	29.854 
17:15	38.3	38.3	38.3	63	26.8	3	13	248	0.00	29.849 
17:20	38.0	34.1	38.0	63	26.5	5	12	248	0.00	29.845 
17:25	38.0	35.0	38.0	64	26.9	4	9	248	0.00	29.844 
17:30	38.3	38.3	38.3	63	26.8	3	6	248	0.00	29.836 
17:35	38.3	35.4	38.3	63	26.8	4	10	248	0.00	29.832 
17:40	38.3	38.3	38.3	63	26.8	3	9	248	0.00	29.829 
17:45	38.5	38.5	38.5	63	27.0	2	7	270	0.00	29.827 
17:50	38.3	38.3	38.3	63	26.8	3	9	248	0.00	29.824 
17:55	38.3	38.3	38.3	64	27.2	3	9	248	0.00	29.821 
18:00	38.2	38.2	38.2	64	27.1	2	6	248	0.00	29.816 
18:05	38.2	38.2	38.2	65	27.5	3	6	248	0.00	29.817 
18:10	38.0	38.0	38.0	65	27.3	3	10	248	0.00	29.816 
18:15	38.0	38.0	38.0	65	27.3	3	7	248	0.00	29.815 
18:20	37.9	37.9	37.9	66	27.6	3	7	248	0.00	29.814 
18:25	37.8	37.8	37.8	67	27.8	3	5	248	0.00	29.816 
18:30	37.6	37.6	37.6	67	27.7	2	8	270	0.00	29.814 
18:35	37.5	37.5	37.5	69	28.3	2	4	225	0.00	29.812 
18:40	37.3	37.3	37.3	69	28.1	2	6	248	0.00	29.812 
18:45	37.3	37.3	37.3	70	28.4	2	5	248	0.00	29.813 
18:50	37.3	37.3	37.3	70	28.4	2	6	248	0.00	29.810 
18:55	37.2	37.2	37.2	71	28.7	2	5	248	0.00	29.808 
19:00	37.2	37.2	37.2	71	28.7	2	5	248	0.00	29.801 
19:05	37.2	37.2	37.2	71	28.7	2	8	248	0.00	29.794 
19:10	37.3	37.3	37.3	71	28.8	2	7	248	0.00	29.794 
19:15	37.3	37.3	37.3	71	28.8	2	5	248	0.00	29.794 
19:20	37.3	37.3	37.3	71	28.8	2	6	248	0.00	29.794 
19:25	37.3	37.3	37.3	71	28.8	2	6	248	0.00	29.801 
19:30	37.3	37.3	37.3	71	28.8	3	6	248	0.00	29.794 
19:35	37.5	37.5	37.5	70	28.6	2	5	225	0.00	29.794 
19:40	37.6	37.6	37.6	70	28.7	3	6	248	0.00	29.795 
19:45	37.8	37.8	37.8	69	28.6	3	9	248	0.00	29.794 
19:50	37.8	37.8	37.8	69	28.6	3	10	225	0.00	29.795 
19:55	37.9	37.9	37.9	69	28.7	3	9	248	0.00	29.798 
20:00	37.9	37.9	37.9	69	28.7	3	9	248	0.00	29.806 
20:05	37.9	37.9	37.9	68	28.3	3	6	248	0.00	29.804 
20:10	37.9	37.9	37.9	69	28.7	1	4	248	0.00	29.803 
20:15	37.9	37.9	37.9	68	28.3	3	7	248	0.00	29.803 
20:20	38.0	38.0	38.0	68	28.4	3	7	248	0.00	29.799 
20:25	38.2	35.2	38.2	67	28.2	4	10	270	0.00	29.799 
20:30	38.3	38.3	38.3	67	28.3	3	8	248	0.00	29.805 
20:35	38.3	38.3	38.3	67	28.3	2	6	248	0.00	29.806 
20:40	38.3	38.3	38.3	67	28.3	2	4	248	0.00	29.807 
20:45	38.3	38.3	38.3	67	28.3	2	9	248	0.00	29.805 
20:50	38.2	38.2	38.2	66	27.9	3	11	248	0.00	29.806 
20:55	38.3	38.3	38.3	66	28.0	3	7	248	0.00	29.804 
21:00	38.2	38.2	38.2	67	28.2	2	6	248	0.00	29.805 
21:05	38.2	38.2	38.2	66	27.9	3	6	248	0.00	29.802 
21:10	38.2	38.2	38.2	66	27.9	3	9	248	0.00	29.802 
21:15	38.2	38.2	38.2	66	27.9	2	7	248	0.00	29.802 
21:20	38.2	38.2	38.2	67	28.2	2	6	248	0.00	29.802 
21:25	38.2	38.2	38.2	67	28.2	3	9	248	0.00	29.798 
21:30	38.2	38.2	38.2	67	28.2	3	6	248	0.00	29.791 
21:35	38.2	38.2	38.2	67	28.2	3	7	248	0.00	29.789 
21:40	38.2	38.2	38.2	67	28.2	3	6	248	0.00	29.788 
21:45	38.0	38.0	38.0	67	28.0	3	9	248	0.00	29.786 
21:50	38.0	38.0	38.0	67	28.0	3	7	248	0.00	29.785 
21:55	37.9	37.9	37.9	67	27.9	2	10	248	0.00	29.786 
22:00	37.9	37.9	37.9	67	27.9	3	6	248	0.00	29.784 
22:05	37.9	37.9	37.9	68	28.3	2	5	248	0.00	29.781 
22:10	37.8	37.8	37.8	68	28.2	2	6	248	0.00	29.782 
22:15	37.9	37.9	37.9	68	28.3	3	7	248	0.00	29.779 
22:20	37.9	37.9	37.9	68	28.3	3	10	248	0.00	29.777 
22:25	37.9	37.9	37.9	68	28.3	3	9	248	0.00	29.778 
22:30	37.9	37.9	37.9	68	28.3	3	6	248	0.00	29.777 
22:35	37.8	37.8	37.8	69	28.6	2	5	248	0.00	29.780 
22:40	37.6	37.6	37.6	69	28.4	2	6	248	0.00	29.781 
22:45	37.6	37.6	37.6	69	28.4	3	7	248	0.00	29.780 
22:50	37.5	37.5	37.5	69	28.3	1	4	225	0.00	29.783 
22:55	37.5	37.5	37.5	70	28.6	2	9	225	0.00	29.782 
23:00	37.5	37.5	37.5	70	28.6	2	5	248	0.00	29.779 
23:05	37.5	37.5	37.5	70	28.6	2	5	248	0.00	29.779 
23:10	37.5	37.5	37.5	70	28.6	1	4	225	0.00	29.780 
23:15	37.5	37.5	37.5	70	28.6	2	5	248	0.00	29.781 
23:20	37.3	37.3	37.3	71	28.8	1	4	248	0.00	29.782 
23:25	37.3	37.3	37.3	71	28.8	1	3	248	0.00	29.783 
23:30	37.2	37.2	37.2	71	28.7	1	3	248	0.00	29.784 
23:35	37.0	37.0	37.0	72	28.8	2	6	270	0.00	29.783 
23:40	36.9	36.9	36.9	72	28.7	1	5	248	0.00	29.783 
23:45	36.6	36.6	36.6	73	28.8	1	4	248	0.00	29.783 
23:50	36.5	36.5	36.5	73	28.7	1	4	248	0.00	29.781 
23:55	36.3	36.3	36.3	74	28.8	2	6	248	0.00	29.782 

CoCoRaHS
IN-AL-39
A2 Web Hosting
Creative Commons License
GoDaddy
Look for:

loaded 2017-12-10 21:25:29 • last modified 2010-11-18 10:43:29
Privacy PolicyDisclaimer
• wx.awcolley.com is powered by PmWiki v.2002016 •
• all content (unless otherwise noted) © 2017 A W Colley